createdAt,value
2017-06-10T00:00:20.041Z,99.99
2017-06-10T00:01:20.023Z,99.99
2017-06-10T00:02:20.002Z,99.99
2017-06-10T00:03:19.975Z,99.99
2017-06-10T00:04:19.958Z,99.99
2017-06-10T00:05:19.943Z,99.99
2017-06-10T00:06:19.912Z,99.99
2017-06-10T00:07:19.891Z,99.99
2017-06-10T00:08:19.869Z,99.99
2017-06-10T00:09:19.852Z,99.99
2017-06-10T00:10:19.826Z,99.99
2017-06-10T00:11:19.809Z,99.99
2017-06-10T00:12:19.784Z,99.99
2017-06-10T00:13:19.767Z,99.99
2017-06-10T00:14:19.740Z,99.99
2017-06-10T00:15:19.722Z,99.99
2017-06-10T00:16:19.699Z,99.99
2017-06-10T00:17:19.398Z,99.99
2017-06-10T00:18:19.664Z,99.99
2017-06-10T00:19:19.636Z,99.99
2017-06-10T00:20:19.618Z,99.99
2017-06-10T00:21:19.587Z,99.99
2017-06-10T00:22:19.572Z,99.99
2017-06-10T00:23:19.549Z,99.99
2017-06-10T00:24:19.529Z,99.99
2017-06-10T00:25:19.510Z,99.99
2017-06-10T00:26:19.485Z,99.99
2017-06-10T00:27:19.464Z,99.99
2017-06-10T00:28:19.444Z,99.99
2017-06-10T00:29:19.419Z,99.99
2017-06-10T00:30:19.403Z,99.99
2017-06-10T00:31:19.377Z,99.99
2017-06-10T00:32:19.360Z,99.99
2017-06-10T00:33:19.338Z,99.99
2017-06-10T00:34:19.319Z,99.99
2017-06-10T00:35:19.294Z,99.99
2017-06-10T00:36:19.273Z,99.99
2017-06-10T00:37:19.284Z,99.99
2017-06-10T00:38:19.232Z,99.99
2017-06-10T00:39:19.205Z,99.99
2017-06-10T00:40:19.188Z,99.99
2017-06-10T00:41:19.169Z,99.99
2017-06-10T00:42:19.152Z,99.99
2017-06-10T00:43:19.120Z,99.99
2017-06-10T00:44:19.105Z,99.99
2017-06-10T00:45:19.079Z,99.99
2017-06-10T00:46:19.109Z,99.99
2017-06-10T00:47:19.040Z,99.99
2017-06-10T00:48:19.019Z,99.99
2017-06-10T00:49:19.043Z,99.99
2017-06-10T00:50:18.973Z,99.99
2017-06-10T00:51:18.950Z,99.99
2017-06-10T00:52:18.931Z,99.99
2017-06-10T00:53:18.920Z,99.99
2017-06-10T00:54:18.887Z,99.99
2017-06-10T00:55:18.870Z,99.99
2017-06-10T00:56:18.843Z,99.99
2017-06-10T00:57:18.822Z,99.99
2017-06-10T00:58:18.797Z,99.99
2017-06-10T00:59:18.779Z,99.99
2017-06-10T01:00:18.762Z,99.99
2017-06-10T01:01:18.434Z,99.99
2017-06-10T01:02:18.711Z,99.99
2017-06-10T01:03:18.690Z,99.99
2017-06-10T01:04:18.675Z,99.99
2017-06-10T01:05:18.650Z,99.99
2017-06-10T01:06:18.630Z,99.99
2017-06-10T01:07:18.663Z,99.99
2017-06-10T01:08:18.584Z,99.99
2017-06-10T01:09:18.561Z,99.99
2017-06-10T01:10:18.541Z,99.99
2017-06-10T01:11:18.522Z,99.99
2017-06-10T01:12:18.500Z,99.99
2017-06-10T01:13:18.480Z,99.99
2017-06-10T01:14:18.454Z,99.99
2017-06-10T01:15:18.433Z,99.99
2017-06-10T01:16:18.412Z,99.99
2017-06-10T01:17:18.391Z,99.99
2017-06-10T01:18:18.376Z,99.99
2017-06-10T01:19:18.346Z,99.99
2017-06-10T01:20:18.334Z,99.99
2017-06-10T01:21:18.308Z,99.99
2017-06-10T01:22:18.285Z,99.99
2017-06-10T01:23:18.260Z,99.99
2017-06-10T01:24:18.238Z,99.99
2017-06-10T01:25:18.220Z,99.99
2017-06-10T01:26:18.196Z,99.99
2017-06-10T01:27:18.173Z,99.99
2017-06-10T01:28:18.154Z,99.99
2017-06-10T01:29:18.132Z,99.99
2017-06-10T01:30:18.109Z,99.99
2017-06-10T01:31:18.090Z,99.99
2017-06-10T01:32:18.073Z,99.99
2017-06-10T01:33:18.044Z,99.99
2017-06-10T01:34:18.022Z,99.99
2017-06-10T01:35:18.004Z,99.99
2017-06-10T01:36:17.978Z,99.99
2017-06-10T01:37:17.964Z,99.99
2017-06-10T01:38:17.935Z,99.99
2017-06-10T01:39:17.907Z,99.99
2017-06-10T01:40:17.899Z,99.99
2017-06-10T01:41:17.870Z,99.99
2017-06-10T01:42:17.847Z,99.99
2017-06-10T01:43:17.829Z,99.99
2017-06-10T01:44:17.812Z,99.99
2017-06-10T01:45:17.788Z,99.99
2017-06-10T01:46:17.766Z,99.99
2017-06-10T01:47:17.741Z,99.99
2017-06-10T01:48:17.723Z,99.99
2017-06-10T01:49:17.757Z,99.99
2017-06-10T01:50:17.678Z,99.99
2017-06-10T01:51:17.656Z,99.99
2017-06-10T01:52:17.634Z,99.99
2017-06-10T01:53:17.626Z,99.99
2017-06-10T01:54:17.592Z,99.99
2017-06-10T01:55:17.621Z,99.99
2017-06-10T01:56:17.553Z,99.99
2017-06-10T01:57:17.564Z,99.99
2017-06-10T01:58:17.505Z,99.99
2017-06-10T01:59:17.485Z,99.99
2017-06-10T02:00:17.463Z,99.99
2017-06-10T02:01:17.437Z,99.99
2017-06-10T02:02:17.413Z,99.99
2017-06-10T02:03:17.399Z,99.99
2017-06-10T02:04:17.374Z,99.99
2017-06-10T02:05:17.358Z,99.99
2017-06-10T02:06:17.334Z,99.99
2017-06-10T02:07:17.008Z,99.99
2017-06-10T02:08:17.287Z,99.99
2017-06-10T02:09:17.266Z,99.99
2017-06-10T02:10:17.249Z,99.99
2017-06-10T02:11:17.223Z,99.99
2017-06-10T02:12:17.200Z,99.99
2017-06-10T02:13:17.184Z,99.99
2017-06-10T02:14:17.205Z,99.99
2017-06-10T02:15:17.136Z,99.99
2017-06-10T02:16:17.117Z,99.99
2017-06-10T02:17:17.090Z,99.99
2017-06-10T02:18:17.069Z,99.99
2017-06-10T02:19:17.054Z,99.99
2017-06-10T02:20:17.035Z,99.99
2017-06-10T02:21:17.009Z,99.99
2017-06-10T02:22:16.984Z,99.99
2017-06-10T02:23:16.966Z,99.99
2017-06-10T02:24:16.939Z,99.99
2017-06-10T02:25:16.925Z,99.99
2017-06-10T02:26:16.897Z,99.99
2017-06-10T02:27:16.876Z,99.99
2017-06-10T02:28:16.856Z,99.99
2017-06-10T02:29:16.842Z,99.99
2017-06-10T02:30:16.864Z,99.99
2017-06-10T02:31:16.838Z,99.99
2017-06-10T02:32:16.770Z,99.99
2017-06-10T02:33:16.758Z,99.99
2017-06-10T02:34:16.729Z,99.99
2017-06-10T02:35:16.698Z,99.99
2017-06-10T02:36:16.377Z,99.99
2017-06-10T02:37:16.655Z,99.99
2017-06-10T02:38:16.634Z,99.99
2017-06-10T02:39:16.619Z,99.99
2017-06-10T02:40:16.596Z,99.99
2017-06-10T02:41:16.574Z,99.99
2017-06-10T02:42:16.550Z,99.99
2017-06-10T02:43:16.526Z,99.99
2017-06-10T02:44:16.505Z,99.99
2017-06-10T02:45:16.491Z,99.99
2017-06-10T02:46:16.463Z,99.99
2017-06-10T02:47:16.445Z,99.99
2017-06-10T02:48:16.470Z,99.99
2017-06-10T02:49:16.397Z,99.99
2017-06-10T02:50:16.373Z,99.99
2017-06-10T02:51:16.355Z,99.99
2017-06-10T02:52:16.329Z,99.99
2017-06-10T02:53:16.308Z,99.99
2017-06-10T02:54:16.286Z,99.99
2017-06-10T02:55:16.267Z,99.99
2017-06-10T02:56:16.242Z,99.99
2017-06-10T02:57:16.223Z,99.99
2017-06-10T02:58:16.248Z,99.99
2017-06-10T02:59:16.180Z,99.99
2017-06-10T03:00:16.154Z,99.99
2017-06-10T03:01:16.134Z,99.99
2017-06-10T03:02:16.114Z,99.99
2017-06-10T03:03:16.096Z,99.99
2017-06-10T03:04:16.068Z,99.99
2017-06-10T03:05:16.097Z,99.99
2017-06-10T03:06:16.023Z,99.99
2017-06-10T03:07:16.007Z,99.99
2017-06-10T03:08:15.986Z,99.99
2017-06-10T03:09:15.959Z,99.99
2017-06-10T03:10:16.237Z,99.99
2017-06-10T03:11:15.920Z,99.99
2017-06-10T03:12:15.895Z,99.99
2017-06-10T03:13:15.868Z,99.99
2017-06-10T03:14:15.851Z,99.99
2017-06-10T03:15:15.531Z,99.99
2017-06-10T03:16:15.808Z,99.99
2017-06-10T03:17:15.787Z,99.99
2017-06-10T03:18:15.462Z,99.99
2017-06-10T03:19:15.744Z,99.99
2017-06-10T03:20:15.720Z,99.99
2017-06-10T03:21:15.708Z,99.99
2017-06-10T03:22:15.686Z,99.99
2017-06-10T03:23:15.706Z,99.99
2017-06-10T03:24:15.630Z,99.99
2017-06-10T03:25:15.611Z,99.99
2017-06-10T03:26:15.590Z,99.99
2017-06-10T03:27:15.573Z,99.99
2017-06-10T03:28:15.542Z,99.99
2017-06-10T03:29:15.529Z,99.99
2017-06-10T03:30:15.501Z,99.99
2017-06-10T03:31:15.480Z,99.99
2017-06-10T03:32:15.460Z,99.99
2017-06-10T03:33:15.435Z,99.99
2017-06-10T03:34:15.414Z,99.99
2017-06-10T03:35:15.395Z,99.99
2017-06-10T03:36:15.376Z,99.99
2017-06-10T03:37:15.353Z,99.99
2017-06-10T03:38:15.333Z,99.99
2017-06-10T03:39:15.308Z,99.99
2017-06-10T03:40:15.285Z,99.99
2017-06-10T03:41:15.262Z,99.99
2017-06-10T03:42:15.241Z,99.99
2017-06-10T03:43:15.221Z,99.99
2017-06-10T03:44:15.196Z,99.99
2017-06-10T03:45:15.177Z,99.99
2017-06-10T03:46:15.160Z,99.99
2017-06-10T03:47:15.137Z,99.99
2017-06-10T03:48:15.111Z,99.99
2017-06-10T03:49:15.088Z,99.99
2017-06-10T03:50:15.069Z,99.99
2017-06-10T03:51:15.050Z,99.99
2017-06-10T03:52:15.026Z,99.99
2017-06-10T03:53:15.009Z,99.99
2017-06-10T03:54:14.982Z,99.99
2017-06-10T03:55:14.967Z,99.99
2017-06-10T03:56:14.940Z,99.99
2017-06-10T03:57:14.918Z,99.99
2017-06-10T03:58:14.894Z,99.99
2017-06-10T03:59:14.878Z,99.99
2017-06-10T04:00:14.855Z,99.99
2017-06-10T04:01:14.830Z,99.99
2017-06-10T04:02:14.812Z,99.99
2017-06-10T04:03:14.789Z,99.99
2017-06-10T04:04:14.770Z,99.99
2017-06-10T04:05:14.747Z,99.99
2017-06-10T04:06:14.734Z,99.99
2017-06-10T04:07:14.706Z,99.99
2017-06-10T04:08:14.683Z,99.99
2017-06-10T04:09:14.668Z,99.99
2017-06-10T04:10:14.640Z,99.99
2017-06-10T04:11:14.619Z,99.99
2017-06-10T04:12:14.653Z,99.99
2017-06-10T04:13:14.575Z,99.99
2017-06-10T04:14:14.560Z,99.99
2017-06-10T04:15:14.537Z,99.99
2017-06-10T04:16:14.519Z,99.99
2017-06-10T04:17:14.500Z,99.99
2017-06-10T04:18:14.478Z,99.99
2017-06-10T04:19:14.456Z,99.99
2017-06-10T04:20:14.435Z,99.99
2017-06-10T04:21:14.411Z,99.99
2017-06-10T04:22:14.395Z,99.99
2017-06-10T04:23:14.377Z,99.99
2017-06-10T04:24:14.360Z,99.99
2017-06-10T04:25:14.334Z,99.99
2017-06-10T04:26:14.363Z,99.99
2017-06-10T04:27:14.296Z,99.99
2017-06-10T04:28:14.276Z,99.99
2017-06-10T04:29:14.256Z,99.99
2017-06-10T04:30:14.235Z,99.99
2017-06-10T04:31:14.215Z,99.99
2017-06-10T04:32:14.199Z,99.99
2017-06-10T04:33:14.179Z,99.99
2017-06-10T04:34:14.156Z,99.99
2017-06-10T04:35:14.136Z,99.99
2017-06-10T04:36:14.119Z,99.99
2017-06-10T04:37:14.097Z,99.99
2017-06-10T04:38:14.079Z,99.99
2017-06-10T04:39:14.054Z,99.99
2017-06-10T04:40:14.042Z,99.99
2017-06-10T04:41:13.724Z,99.99
2017-06-10T04:42:14.004Z,99.96
2017-06-10T04:43:13.989Z,99.2
2017-06-10T04:44:13.969Z,99.1
2017-06-10T04:45:13.951Z,98.62
2017-06-10T04:46:13.933Z,98.91
2017-06-10T04:47:13.910Z,98.58
2017-06-10T04:48:13.897Z,98.19
2017-06-10T04:49:13.872Z,98.19
2017-06-10T04:50:13.859Z,97.91
2017-06-10T04:51:13.835Z,97.91
2017-06-10T04:52:13.818Z,97.91
2017-06-10T04:53:13.797Z,97.71
2017-06-10T04:54:13.780Z,97.76
2017-06-10T04:55:13.762Z,97.86
2017-06-10T04:56:13.745Z,98.05
2017-06-10T04:57:13.750Z,98.14
2017-06-10T04:58:13.709Z,98.91
2017-06-10T04:59:13.693Z,98.72
2017-06-10T05:00:13.672Z,98.48
2017-06-10T05:01:13.653Z,97.04
2017-06-10T05:02:13.640Z,97.42
2017-06-10T05:03:13.618Z,97.42
2017-06-10T05:04:13.603Z,97.19
2017-06-10T05:05:13.588Z,97.28
2017-06-10T05:06:13.567Z,97.38
2017-06-10T05:07:13.550Z,97.09
2017-06-10T05:08:13.535Z,97.19
2017-06-10T05:09:13.514Z,96.66
2017-06-10T05:10:13.495Z,95.6
2017-06-10T05:11:13.477Z,95.79
2017-06-10T05:12:13.461Z,96.47
2017-06-10T05:13:13.451Z,97.04
2017-06-10T05:14:13.431Z,96.75
2017-06-10T05:15:13.412Z,96.12
2017-06-10T05:16:13.397Z,95.55
2017-06-10T05:17:13.396Z,96.22
2017-06-10T05:18:13.362Z,96.61
2017-06-10T05:19:13.351Z,95.94
2017-06-10T05:20:13.030Z,96.03
2017-06-10T05:21:13.313Z,95.17
2017-06-10T05:22:13.343Z,95.65
2017-06-10T05:23:13.283Z,94.49
2017-06-10T05:24:13.263Z,95.79
2017-06-10T05:25:13.246Z,96.66
2017-06-10T05:26:13.281Z,95.5
2017-06-10T05:27:13.221Z,95.6
2017-06-10T05:28:13.200Z,96.08
2017-06-10T05:29:13.189Z,96.32
2017-06-10T05:30:13.170Z,95.07
2017-06-10T05:31:13.155Z,94.29
2017-06-10T05:32:13.133Z,94.29
2017-06-10T05:33:13.123Z,94.97
2017-06-10T05:34:13.100Z,95.74
2017-06-10T05:35:13.088Z,94.59
2017-06-10T05:36:13.077Z,95.16
2017-06-10T05:37:13.061Z,96.08
2017-06-10T05:38:13.039Z,95.4
2017-06-10T05:39:13.025Z,94.24
2017-06-10T05:40:13.009Z,93.86
2017-06-10T05:41:12.998Z,94.06
2017-06-10T05:42:12.980Z,95.93
2017-06-10T05:43:12.967Z,95.26
2017-06-10T05:44:12.948Z,91.78
2017-06-10T05:45:12.935Z,93.43
2017-06-10T05:46:12.918Z,94.87
2017-06-10T05:47:12.907Z,95.5
2017-06-10T05:48:12.893Z,93.57
2017-06-10T05:49:12.876Z,93.85
2017-06-10T05:50:12.882Z,93.57
2017-06-10T05:51:12.846Z,92.32
2017-06-10T05:52:12.882Z,92.6
2017-06-10T05:53:12.825Z,94.82
2017-06-10T05:54:12.804Z,94.2
2017-06-10T05:55:12.795Z,93.23
2017-06-10T05:56:12.774Z,93.32
2017-06-10T05:57:12.763Z,92.84
2017-06-10T05:58:12.998Z,90.23
2017-06-10T05:59:12.736Z,89.85
2017-06-10T06:00:12.720Z,89.27
2017-06-10T06:01:12.707Z,90.62
2017-06-10T06:02:12.691Z,89.65
2017-06-10T06:03:12.678Z,89.95
2017-06-10T06:04:12.668Z,92.07
2017-06-10T06:05:12.659Z,89.56
2017-06-10T06:06:12.690Z,89.75
2017-06-10T06:07:12.635Z,88.59
2017-06-10T06:08:12.630Z,90.91
2017-06-10T06:09:12.597Z,89.75
2017-06-10T06:10:12.583Z,88.5
2017-06-10T06:11:12.272Z,89.17
2017-06-10T06:12:12.561Z,88.79
2017-06-10T06:13:12.551Z,90.14
2017-06-10T06:14:12.531Z,88.98
2017-06-10T06:15:12.527Z,88.79
2017-06-10T06:16:12.205Z,89.03
2017-06-10T06:17:12.490Z,89.03
2017-06-10T06:18:12.491Z,88.54
2017-06-10T06:19:12.462Z,89.7
2017-06-10T06:20:12.455Z,88.39
2017-06-10T06:21:12.442Z,89.36
2017-06-10T06:22:12.433Z,89.65
2017-06-10T06:23:12.464Z,88.97
2017-06-10T06:24:12.399Z,88.59
2017-06-10T06:25:12.391Z,89.07
2017-06-10T06:26:12.385Z,87.52
2017-06-10T06:27:12.422Z,87.52
2017-06-10T06:28:12.353Z,89.36
2017-06-10T06:29:12.344Z,90.13
2017-06-10T06:30:12.339Z,88.82
2017-06-10T06:31:12.318Z,90.08
2017-06-10T06:32:12.300Z,89.64
2017-06-10T06:33:12.301Z,88.57
2017-06-10T06:34:11.983Z,89.45
2017-06-10T06:35:12.318Z,88.87
2017-06-10T06:36:12.309Z,87.07
2017-06-10T06:37:12.250Z,89.29
2017-06-10T06:38:12.235Z,88.33
2017-06-10T06:39:12.225Z,85.57
2017-06-10T06:40:12.211Z,87.27
2017-06-10T06:41:12.205Z,87.65
2017-06-10T06:42:12.242Z,89.2
2017-06-10T06:43:12.181Z,89.05
2017-06-10T06:44:12.170Z,87.21
2017-06-10T06:45:12.204Z,86.82
2017-06-10T06:46:12.151Z,85.18
2017-06-10T06:47:12.133Z,86.24
2017-06-10T06:48:12.122Z,86.87
2017-06-10T06:49:12.138Z,85.71
2017-06-10T06:50:12.104Z,87.16
2017-06-10T06:51:12.092Z,85.8
2017-06-10T06:52:12.080Z,87.16
2017-06-10T06:53:12.071Z,86.58
2017-06-10T06:54:12.061Z,85.41
2017-06-10T06:55:12.052Z,85.61
2017-06-10T06:56:12.041Z,85.41
2017-06-10T06:57:12.084Z,84.35
2017-06-10T06:58:12.018Z,85.41
2017-06-10T06:59:12.005Z,84.55
2017-06-10T07:00:12.252Z,85.31
2017-06-10T07:01:11.989Z,86.48
2017-06-10T07:02:11.984Z,83.91
2017-06-10T07:03:11.976Z,84.78
2017-06-10T07:04:11.971Z,85.85
2017-06-10T07:05:11.951Z,84.53
2017-06-10T07:06:11.941Z,86.76
2017-06-10T07:07:11.934Z,87.63
2017-06-10T07:08:11.922Z,88.55
2017-06-10T07:09:11.921Z,85.64
2017-06-10T07:10:11.904Z,87.13
2017-06-10T07:11:11.897Z,86.46
2017-06-10T07:12:11.884Z,87.43
2017-06-10T07:13:11.875Z,85.04
2017-06-10T07:14:11.867Z,82.9
2017-06-10T07:15:11.862Z,82.23
2017-06-10T07:16:11.852Z,84.81
2017-06-10T07:17:11.843Z,84.91
2017-06-10T07:18:11.830Z,84.94
2017-06-10T07:19:11.815Z,84.36
2017-06-10T07:20:11.811Z,81.45
2017-06-10T07:21:11.801Z,82.62
2017-06-10T07:22:11.796Z,83.78
2017-06-10T07:23:11.795Z,86.4
2017-06-10T07:24:11.778Z,86.64
2017-06-10T07:25:11.771Z,81.68
2017-06-10T07:26:11.761Z,84.21
2017-06-10T07:27:11.754Z,81.98
2017-06-10T07:28:11.756Z,83.92
2017-06-10T07:29:11.735Z,86.49
2017-06-10T07:30:11.730Z,85.9
2017-06-10T07:31:11.716Z,84.1
2017-06-10T07:32:11.462Z,84
2017-06-10T07:33:11.702Z,84.97
2017-06-10T07:34:11.745Z,85.11
2017-06-10T07:35:11.693Z,83.75
2017-06-10T07:36:11.380Z,84.05
2017-06-10T07:37:11.682Z,84.14
2017-06-10T07:38:11.662Z,80.74
2017-06-10T07:39:11.658Z,81.81
2017-06-10T07:40:11.650Z,83.12
2017-06-10T07:41:11.647Z,85.89
2017-06-10T07:42:11.633Z,79.22
2017-06-10T07:43:11.629Z,80.64
2017-06-10T07:44:11.617Z,79.47
2017-06-10T07:45:11.612Z,81.48
2017-06-10T07:46:11.605Z,82.64
2017-06-10T07:47:11.599Z,83.91
2017-06-10T07:48:11.590Z,85.94
2017-06-10T07:49:11.585Z,84.05
2017-06-10T07:50:11.582Z,83.21
2017-06-10T07:51:11.571Z,81.36
2017-06-10T07:52:11.565Z,78.92
2017-06-10T07:53:11.560Z,81.02
2017-06-10T07:54:11.546Z,82
2017-06-10T07:55:11.539Z,82.04
2017-06-10T07:56:11.536Z,76.68
2017-06-10T07:57:11.534Z,79.8
2017-06-10T07:58:11.520Z,82
2017-06-10T07:59:11.510Z,81.32
2017-06-10T08:00:11.508Z,80.38
2017-06-10T08:01:11.506Z,77.56
2017-06-10T08:02:11.497Z,80.48
2017-06-10T08:03:11.489Z,78.01
2017-06-10T08:04:11.480Z,80.74
2017-06-10T08:05:11.489Z,83.56
2017-06-10T08:06:11.475Z,81.94
2017-06-10T08:07:11.463Z,80.04
2017-06-10T08:08:11.512Z,77.8
2017-06-10T08:09:11.451Z,77.99
2017-06-10T08:10:11.445Z,81.4
2017-06-10T08:11:11.437Z,80.17
2017-06-10T08:12:11.433Z,78.81
2017-06-10T08:13:11.425Z,79.06
2017-06-10T08:14:11.418Z,78.71
2017-06-10T08:15:11.419Z,80.17
2017-06-10T08:16:11.413Z,71.56
2017-06-10T08:17:11.402Z,75.36
2017-06-10T08:18:11.392Z,78.58
2017-06-10T08:19:11.388Z,77.6
2017-06-10T08:20:11.385Z,78.67
2017-06-10T08:21:11.378Z,76.73
2017-06-10T08:22:11.371Z,70.98
2017-06-10T08:23:11.362Z,76.53
2017-06-10T08:24:11.361Z,75.56
2017-06-10T08:25:11.353Z,75.56
2017-06-10T08:26:11.347Z,78.19
2017-06-10T08:27:11.345Z,74.29
2017-06-10T08:28:11.340Z,77.25
2017-06-10T08:29:11.327Z,82.22
2017-06-10T08:30:11.327Z,83.97
2017-06-10T08:31:11.317Z,82.45
2017-06-10T08:32:11.319Z,77.81
2017-06-10T08:33:11.305Z,79.66
2017-06-10T08:34:11.308Z,79.47
2017-06-10T08:35:11.298Z,76.45
2017-06-10T08:36:11.294Z,73.82
2017-06-10T08:37:11.338Z,70.79
2017-06-10T08:38:11.276Z,74.56
2017-06-10T08:39:11.277Z,78.03
2017-06-10T08:40:11.271Z,75.49
2017-06-10T08:41:10.960Z,79.88
2017-06-10T08:42:11.304Z,80.36
2017-06-10T08:43:11.259Z,77.13
2017-06-10T08:44:11.252Z,78.55
2017-06-10T08:45:11.241Z,74.98
2017-06-10T08:46:11.240Z,75.47
2017-06-10T08:47:11.237Z,77.87
2017-06-10T08:48:11.231Z,79.47
2017-06-10T08:49:11.237Z,74.05
2017-06-10T08:50:11.218Z,70.63
2017-06-10T08:51:11.240Z,71.57
2017-06-10T08:52:11.211Z,74.3
2017-06-10T08:53:11.204Z,74.17
2017-06-10T08:54:11.196Z,72.25
2017-06-10T08:55:11.215Z,73.58
2017-06-10T08:56:11.195Z,72.12
2017-06-10T08:57:11.237Z,76.8
2017-06-10T08:58:11.177Z,77.29
2017-06-10T08:59:11.177Z,77.91
2017-06-10T09:00:11.164Z,73.95
2017-06-10T09:01:11.171Z,69.95
2017-06-10T09:02:10.856Z,68.87
2017-06-10T09:03:11.181Z,70.21
2017-06-10T09:04:11.152Z,70.17
2017-06-10T09:05:11.144Z,74.04
2017-06-10T09:06:11.148Z,76.21
2017-06-10T09:07:11.149Z,72.51
2017-06-10T09:08:11.130Z,73.97
2017-06-10T09:09:10.826Z,73.29
2017-06-10T09:10:11.125Z,74.98
2017-06-10T09:11:11.119Z,72.88
2017-06-10T09:12:10.808Z,68.68
2017-06-10T09:13:11.157Z,71.86
2017-06-10T09:14:11.102Z,68.16
2017-06-10T09:15:11.096Z,68.94
2017-06-10T09:16:11.088Z,71.37
2017-06-10T09:17:11.085Z,75.37
2017-06-10T09:18:11.080Z,72.74
2017-06-10T09:19:11.078Z,68.97
2017-06-10T09:20:11.071Z,68.87
2017-06-10T09:21:11.062Z,68.45
2017-06-10T09:22:11.066Z,72.64
2017-06-10T09:23:11.060Z,74.6
2017-06-10T09:24:11.055Z,72.09
2017-06-10T09:25:11.067Z,70.34
2017-06-10T09:26:11.043Z,74.01
2017-06-10T09:27:11.039Z,66.56
2017-06-10T09:28:11.037Z,69.1
2017-06-10T09:29:10.727Z,70.1
2017-06-10T09:30:11.022Z,68.74
2017-06-10T09:31:11.017Z,70.78
2017-06-10T09:32:10.710Z,71.86
2017-06-10T09:33:11.013Z,74.1
2017-06-10T09:34:10.699Z,73.8
2017-06-10T09:35:10.995Z,73.32
2017-06-10T09:36:10.992Z,71.56
2017-06-10T09:37:10.998Z,74.72
2017-06-10T09:38:10.980Z,73.74
2017-06-10T09:39:10.972Z,75.53
2017-06-10T09:40:10.966Z,68.23
2017-06-10T09:41:10.965Z,69.68
2017-06-10T09:42:10.951Z,69.88
2017-06-10T09:43:10.945Z,67.83
2017-06-10T09:44:10.942Z,61.01
2017-06-10T09:45:10.936Z,67.02
2017-06-10T09:46:10.931Z,67.6
2017-06-10T09:47:10.946Z,69.32
2017-06-10T09:48:10.917Z,66.11
2017-06-10T09:49:10.915Z,70.78
2017-06-10T09:50:10.906Z,69.03
2017-06-10T09:51:10.900Z,69.29
2017-06-10T09:52:10.897Z,63.55
2017-06-10T09:53:10.882Z,66.73
2017-06-10T09:54:10.573Z,67.08
2017-06-10T09:55:10.866Z,68.77
2017-06-10T09:56:10.863Z,68.77
2017-06-10T09:57:10.855Z,70
2017-06-10T09:58:10.848Z,67.57
2017-06-10T09:59:10.837Z,67.83
2017-06-10T10:00:10.828Z,70.45
2017-06-10T10:01:10.818Z,70.61
2017-06-10T10:02:10.811Z,69.18
2017-06-10T10:03:10.796Z,72.09
2017-06-10T10:04:10.787Z,72.97
2017-06-10T10:05:10.777Z,72.33
2017-06-10T10:06:10.765Z,72.13
2017-06-10T10:07:10.756Z,73.36
2017-06-10T10:08:10.750Z,71.64
2017-06-10T10:09:10.737Z,74.75
2017-06-10T10:10:10.723Z,73.97
2017-06-10T10:11:10.717Z,73.72
2017-06-10T10:12:10.714Z,74.5
2017-06-10T10:13:10.695Z,71.33
2017-06-10T10:14:10.742Z,71.29
2017-06-10T10:15:10.680Z,73.08
2017-06-10T10:16:10.666Z,73.18
2017-06-10T10:17:10.659Z,72.33
2017-06-10T10:18:10.654Z,66.11
2017-06-10T10:19:10.638Z,67.86
2017-06-10T10:20:10.629Z,64.98
2017-06-10T10:21:10.629Z,66.96
2017-06-10T10:22:10.611Z,66.66
2017-06-10T10:23:10.659Z,60.46
2017-06-10T10:24:10.596Z,62.96
2017-06-10T10:25:10.585Z,61.57
2017-06-10T10:26:10.588Z,61.96
2017-06-10T10:27:10.569Z,61.54
2017-06-10T10:28:10.607Z,64.36
2017-06-10T10:29:10.564Z,64.26
2017-06-10T10:30:10.543Z,63.49
2017-06-10T10:31:10.531Z,66.37
2017-06-10T10:32:10.743Z,65.69
2017-06-10T10:33:10.570Z,62.38
2017-06-10T10:34:10.556Z,60.54
2017-06-10T10:35:10.489Z,60.05
2017-06-10T10:36:10.482Z,60.02
2017-06-10T10:37:10.473Z,59.05
2017-06-10T10:38:10.473Z,57.69
2017-06-10T10:39:10.456Z,59.03
2017-06-10T10:40:10.147Z,58.25
2017-06-10T10:41:10.436Z,60.28
2017-06-10T10:42:10.423Z,62.39
2017-06-10T10:43:10.419Z,60.09
2017-06-10T10:44:10.405Z,57.86
2017-06-10T10:45:10.395Z,58.93
2017-06-10T10:46:10.391Z,57.44
2017-06-10T10:47:10.373Z,59
2017-06-10T10:48:10.364Z,58.41
2017-06-10T10:49:10.348Z,60.94
2017-06-10T10:50:10.338Z,61.71
2017-06-10T10:51:10.332Z,61.71
2017-06-10T10:52:10.330Z,61.74
2017-06-10T10:53:10.309Z,62.32
2017-06-10T10:54:10.308Z,60.97
2017-06-10T10:55:10.289Z,59.12
2017-06-10T10:56:10.278Z,59.22
2017-06-10T10:57:10.267Z,58.93
2017-06-10T10:58:10.254Z,59.31
2017-06-10T10:59:10.243Z,54.75
2017-06-10T11:00:10.235Z,56.01
2017-06-10T11:01:10.222Z,57.37
2017-06-10T11:02:10.210Z,55.53
2017-06-10T11:03:10.200Z,52.81
2017-06-10T11:04:10.189Z,52.2
2017-06-10T11:05:10.181Z,55.31
2017-06-10T11:06:10.174Z,56.37
2017-06-10T11:07:10.154Z,54.14
2017-06-10T11:08:10.147Z,54.82
2017-06-10T11:09:10.134Z,53.37
2017-06-10T11:10:10.125Z,56.57
2017-06-10T11:11:10.108Z,51.23
2017-06-10T11:12:10.100Z,52.03
2017-06-10T11:13:10.085Z,50.56
2017-06-10T11:14:10.075Z,51.14
2017-06-10T11:15:10.063Z,50.65
2017-06-10T11:16:10.052Z,51.72
2017-06-10T11:17:10.042Z,51.53
2017-06-10T11:18:10.027Z,49.39
2017-06-10T11:19:09.712Z,51.14
2017-06-10T11:20:10.006Z,46.67
2017-06-10T11:21:10.000Z,48.22
2017-06-10T11:22:09.981Z,49.07
2017-06-10T11:23:09.967Z,51.79
2017-06-10T11:24:09.958Z,46.75
2017-06-10T11:25:09.949Z,50.53
2017-06-10T11:26:09.942Z,50.65
2017-06-10T11:27:09.922Z,51.33
2017-06-10T11:28:09.918Z,50.46
2017-06-10T11:29:09.900Z,46.98
2017-06-10T11:30:09.895Z,46.69
2017-06-10T11:31:09.875Z,48.35
2017-06-10T11:32:09.874Z,49.02
2017-06-10T11:33:09.856Z,49.99
2017-06-10T11:34:09.837Z,50.48
2017-06-10T11:35:09.827Z,49.9
2017-06-10T11:36:09.822Z,48.93
2017-06-10T11:37:09.808Z,48.83
2017-06-10T11:38:09.793Z,49.12
2017-06-10T11:39:09.780Z,49.22
2017-06-10T11:40:09.777Z,46.5
2017-06-10T11:41:09.764Z,46.31
2017-06-10T11:42:09.746Z,46.69
2017-06-10T11:43:09.799Z,44.85
2017-06-10T11:44:09.723Z,44.07
2017-06-10T11:45:09.712Z,45.62
2017-06-10T11:46:09.695Z,42.13
2017-06-10T11:47:09.688Z,42.4
2017-06-10T11:48:09.670Z,44.44
2017-06-10T11:49:09.355Z,44.05
2017-06-10T11:50:09.644Z,43.66
2017-06-10T11:51:09.630Z,43.47
2017-06-10T11:52:09.619Z,41.72
2017-06-10T11:53:09.603Z,40.25
2017-06-10T11:54:09.291Z,40.73
2017-06-10T11:55:09.582Z,40.44
2017-06-10T11:56:09.566Z,39.76
2017-06-10T11:57:09.560Z,40.13
2017-06-10T11:58:09.542Z,40.33
2017-06-10T11:59:09.526Z,40.34
2017-06-10T12:00:09.213Z,40.13
2017-06-10T12:01:09.203Z,38.96
2017-06-10T12:02:09.487Z,39.94
2017-06-10T12:03:09.472Z,40.33
2017-06-10T12:04:09.459Z,41.08
2017-06-10T12:05:09.148Z,40.69
2017-06-10T12:06:09.431Z,40.4
2017-06-10T12:07:09.423Z,40.52
2017-06-10T12:08:09.102Z,40.13
2017-06-10T12:09:09.385Z,39.94
2017-06-10T12:10:09.385Z,39.45
2017-06-10T12:11:09.361Z,39.06
2017-06-10T12:12:09.045Z,38.48
2017-06-10T12:13:09.334Z,37.51
2017-06-10T12:14:09.321Z,36.74
2017-06-10T12:15:09.312Z,36.52
2017-06-10T12:16:09.287Z,37.3
2017-06-10T12:17:08.971Z,37.4
2017-06-10T12:18:09.282Z,37.4
2017-06-10T12:19:09.295Z,36.52
2017-06-10T12:20:09.228Z,36.43
2017-06-10T12:21:09.214Z,36.8
2017-06-10T12:22:09.208Z,36.51
2017-06-10T12:23:09.185Z,36.02
2017-06-10T12:24:09.171Z,36.51
2017-06-10T12:25:09.162Z,36.41
2017-06-10T12:26:09.138Z,36.41
2017-06-10T12:27:09.131Z,36.33
2017-06-10T12:28:09.109Z,36.33
2017-06-10T12:29:09.153Z,36.43
2017-06-10T12:30:09.090Z,37.01
2017-06-10T12:31:09.069Z,36.52
2017-06-10T12:32:09.047Z,36.33
2017-06-10T12:33:09.037Z,36.64
2017-06-10T12:34:09.031Z,36.74
2017-06-10T12:35:09.009Z,36.25
2017-06-10T12:36:08.991Z,36.35
2017-06-10T12:37:08.979Z,36.35
2017-06-10T12:38:08.958Z,36.16
2017-06-10T12:39:08.951Z,36.06
2017-06-10T12:40:08.935Z,36.16
2017-06-10T12:41:08.925Z,36.16
2017-06-10T12:42:08.956Z,35.96
2017-06-10T12:43:08.896Z,35.85
2017-06-10T12:44:08.870Z,35.75
2017-06-10T12:45:08.856Z,36.04
2017-06-10T12:46:08.844Z,36.62
2017-06-10T12:47:08.830Z,36.72
2017-06-10T12:48:08.810Z,37.01
2017-06-10T12:49:08.801Z,36.41
2017-06-10T12:50:08.783Z,36.22
2017-06-10T12:51:08.770Z,35.93
2017-06-10T12:52:08.752Z,36.02
2017-06-10T12:53:08.787Z,35.75
2017-06-10T12:54:08.722Z,35.46